Norge, Virginia
Current Conditions -  °F | °C
As of 1:15 PM on Wednesday 28 Jan 2015 (Local Time) from KFYJ Reporting Station
Clear Clear  
Wind Chill: 33°   Ceiling: Unl
Heat Index: 40°   Visibility: 10mi
Dew Point:   Wind: 10mph
Humidity: 19%   Direction: 330°NNW
Pressure: 30.23"   Gusts: NA
Location:  37.37°N, 76.77°W
Report Text: KFYJ 281815Z AUTO 33009KT 10SM CLR 04/M18 A3023 RMK AO2 T00431176
Loading
Personal Weather Stations






























Interactive Weather Map New forecast layout! Learn more

10-Day Weather Forecast

Advertisements
Track Severe Weather on mobile